sensor_id;sensor_type;location;lat;lon;timestamp;temperature;humidity
74416;SHT31;62850;42.428;25.618;2024-02-26T00:02:25;11.01;76.01
74416;SHT31;62850;42.428;25.618;2024-02-26T00:04:50;11.04;75.89
74416;SHT31;62850;42.428;25.618;2024-02-26T00:07:16;11.06;75.89
74416;SHT31;62850;42.428;25.618;2024-02-26T00:09:42;11.12;75.61
74416;SHT31;62850;42.428;25.618;2024-02-26T00:12:07;11.15;75.49
74416;SHT31;62850;42.428;25.618;2024-02-26T00:14:33;11.19;75.32
74416;SHT31;62850;42.428;25.618;2024-02-26T00:16:58;11.25;75.37
74416;SHT31;62850;42.428;25.618;2024-02-26T00:19:24;11.30;75.04
74416;SHT31;62850;42.428;25.618;2024-02-26T00:21:49;11.35;74.78
74416;SHT31;62850;42.428;25.618;2024-02-26T00:24:14;11.37;74.57
74416;SHT31;62850;42.428;25.618;2024-02-26T00:26:40;11.40;74.48
74416;SHT31;62850;42.428;25.618;2024-02-26T00:29:05;11.39;74.61
74416;SHT31;62850;42.428;25.618;2024-02-26T00:31:31;11.29;74.58
74416;SHT31;62850;42.428;25.618;2024-02-26T00:33:56;11.33;74.82
74416;SHT31;62850;42.428;25.618;2024-02-26T00:36:22;11.29;74.64
74416;SHT31;62850;42.428;25.618;2024-02-26T00:38:48;11.27;74.95
74416;SHT31;62850;42.428;25.618;2024-02-26T00:41:19;11.26;74.91
74416;SHT31;62850;42.428;25.618;2024-02-26T00:43:45;11.22;75.16
74416;SHT31;62850;42.428;25.618;2024-02-26T00:46:10;11.22;75.44
74416;SHT31;62850;42.428;25.618;2024-02-26T00:48:36;11.26;74.92
74416;SHT31;62850;42.428;25.618;2024-02-26T00:51:03;11.27;74.84
74416;SHT31;62850;42.428;25.618;2024-02-26T00:53:30;11.30;74.90
74416;SHT31;62850;42.428;25.618;2024-02-26T00:55:56;11.39;74.86
74416;SHT31;62850;42.428;25.618;2024-02-26T00:58:21;11.40;74.39
74416;SHT31;62850;42.428;25.618;2024-02-26T01:00:47;11.40;74.80
74416;SHT31;62850;42.428;25.618;2024-02-26T01:03:12;11.44;74.36
74416;SHT31;62850;42.428;25.618;2024-02-26T01:05:38;11.53;74.20
74416;SHT31;62850;42.428;25.618;2024-02-26T01:08:04;11.62;74.10
74416;SHT31;62850;42.428;25.618;2024-02-26T01:10:29;11.66;73.70
74416;SHT31;62850;42.428;25.618;2024-02-26T01:12:55;11.62;73.71
74416;SHT31;62850;42.428;25.618;2024-02-26T01:15:20;11.66;73.61
74416;SHT31;62850;42.428;25.618;2024-02-26T01:17:49;11.52;73.82
74416;SHT31;62850;42.428;25.618;2024-02-26T01:20:15;11.43;73.90
74416;SHT31;62850;42.428;25.618;2024-02-26T01:22:40;11.46;74.09
74416;SHT31;62850;42.428;25.618;2024-02-26T01:25:06;11.50;74.15
74416;SHT31;62850;42.428;25.618;2024-02-26T01:27:33;11.49;73.92
74416;SHT31;62850;42.428;25.618;2024-02-26T01:29:58;11.57;73.90
74416;SHT31;62850;42.428;25.618;2024-02-26T01:32:24;11.50;73.72
74416;SHT31;62850;42.428;25.618;2024-02-26T01:34:49;11.43;73.98
74416;SHT31;62850;42.428;25.618;2024-02-26T01:37:15;11.53;73.98
74416;SHT31;62850;42.428;25.618;2024-02-26T01:39:40;11.59;73.75
74416;SHT31;62850;42.428;25.618;2024-02-26T01:42:07;11.59;73.80
74416;SHT31;62850;42.428;25.618;2024-02-26T01:44:32;11.55;73.94
74416;SHT31;62850;42.428;25.618;2024-02-26T01:46:58;11.52;74.10
74416;SHT31;62850;42.428;25.618;2024-02-26T01:49:23;11.47;74.04
74416;SHT31;62850;42.428;25.618;2024-02-26T01:51:49;11.44;74.16
74416;SHT31;62850;42.428;25.618;2024-02-26T01:54:15;11.40;74.23
74416;SHT31;62850;42.428;25.618;2024-02-26T01:56:41;11.42;74.28
74416;SHT31;62850;42.428;25.618;2024-02-26T01:59:08;11.44;74.02
74416;SHT31;62850;42.428;25.618;2024-02-26T02:01:34;11.43;74.21
74416;SHT31;62850;42.428;25.618;2024-02-26T02:04:00;11.44;74.25
74416;SHT31;62850;42.428;25.618;2024-02-26T02:06:26;11.42;74.12
74416;SHT31;62850;42.428;25.618;2024-02-26T02:08:54;11.43;74.11
74416;SHT31;62850;42.428;25.618;2024-02-26T02:11:20;11.40;74.12
74416;SHT31;62850;42.428;25.618;2024-02-26T02:13:45;11.26;74.41
74416;SHT31;62850;42.428;25.618;2024-02-26T02:16:11;11.05;75.19
74416;SHT31;62850;42.428;25.618;2024-02-26T02:18:37;10.97;75.38
74416;SHT31;62850;42.428;25.618;2024-02-26T02:21:03;10.95;75.84
74416;SHT31;62850;42.428;25.618;2024-02-26T02:23:28;11.02;75.46
74416;SHT31;62850;42.428;25.618;2024-02-26T02:25:56;11.06;75.30
74416;SHT31;62850;42.428;25.618;2024-02-26T02:28:23;11.01;75.47
74416;SHT31;62850;42.428;25.618;2024-02-26T02:30:49;11.02;75.55
74416;SHT31;62850;42.428;25.618;2024-02-26T02:33:16;10.99;75.55
74416;SHT31;62850;42.428;25.618;2024-02-26T02:35:41;10.99;75.46
74416;SHT31;62850;42.428;25.618;2024-02-26T02:38:07;10.87;75.80
74416;SHT31;62850;42.428;25.618;2024-02-26T02:40:32;10.81;76.10
74416;SHT31;62850;42.428;25.618;2024-02-26T02:42:58;10.84;75.90
74416;SHT31;62850;42.428;25.618;2024-02-26T02:45:25;10.82;75.94
74416;SHT31;62850;42.428;25.618;2024-02-26T02:47:50;10.82;75.92
74416;SHT31;62850;42.428;25.618;2024-02-26T02:50:16;10.87;75.92
74416;SHT31;62850;42.428;25.618;2024-02-26T02:52:41;10.95;75.71
74416;SHT31;62850;42.428;25.618;2024-02-26T02:55:07;11.01;75.54
74416;SHT31;62850;42.428;25.618;2024-02-26T02:57:33;10.94;75.63
74416;SHT31;62850;42.428;25.618;2024-02-26T02:59:58;10.92;75.76
74416;SHT31;62850;42.428;25.618;2024-02-26T03:02:24;10.98;75.76
74416;SHT31;62850;42.428;25.618;2024-02-26T03:04:52;10.99;75.67
74416;SHT31;62850;42.428;25.618;2024-02-26T03:07:18;10.98;75.66
74416;SHT31;62850;42.428;25.618;2024-02-26T03:09:43;10.92;75.75
74416;SHT31;62850;42.428;25.618;2024-02-26T03:12:09;10.97;75.71
74416;SHT31;62850;42.428;25.618;2024-02-26T03:14:34;11.02;75.79
74416;SHT31;62850;42.428;25.618;2024-02-26T03:17:00;11.02;75.55
74416;SHT31;62850;42.428;25.618;2024-02-26T03:19:25;10.99;75.69
74416;SHT31;62850;42.428;25.618;2024-02-26T03:21:51;10.92;75.74
74416;SHT31;62850;42.428;25.618;2024-02-26T03:24:16;10.81;76.02
74416;SHT31;62850;42.428;25.618;2024-02-26T03:26:42;10.79;76.34
74416;SHT31;62850;42.428;25.618;2024-02-26T03:29:07;10.74;76.56
74416;SHT31;62850;42.428;25.618;2024-02-26T03:31:32;10.77;76.66
74416;SHT31;62850;42.428;25.618;2024-02-26T03:33:58;10.69;76.78
74416;SHT31;62850;42.428;25.618;2024-02-26T03:36:23;10.63;76.98
74416;SHT31;62850;42.428;25.618;2024-02-26T03:38:49;10.64;76.87
74416;SHT31;62850;42.428;25.618;2024-02-26T03:41:14;10.77;76.59
74416;SHT31;62850;42.428;25.618;2024-02-26T03:43:40;10.74;76.18
74416;SHT31;62850;42.428;25.618;2024-02-26T03:46:09;10.88;75.79
74416;SHT31;62850;42.428;25.618;2024-02-26T03:48:36;11.04;75.28
74416;SHT31;62850;42.428;25.618;2024-02-26T03:51:02;11.12;74.63
74416;SHT31;62850;42.428;25.618;2024-02-26T03:53:28;11.23;74.41
74416;SHT31;62850;42.428;25.618;2024-02-26T03:55:53;11.29;74.05
74416;SHT31;62850;42.428;25.618;2024-02-26T03:58:20;11.39;73.73
74416;SHT31;62850;42.428;25.618;2024-02-26T04:00:46;11.46;73.44
74416;SHT31;62850;42.428;25.618;2024-02-26T04:03:13;11.49;73.30
74416;SHT31;62850;42.428;25.618;2024-02-26T04:05:38;11.59;73.07
74416;SHT31;62850;42.428;25.618;2024-02-26T04:08:05;11.64;72.93
74416;SHT31;62850;42.428;25.618;2024-02-26T04:10:32;11.71;72.60
74416;SHT31;62850;42.428;25.618;2024-02-26T04:13:00;11.77;72.43
74416;SHT31;62850;42.428;25.618;2024-02-26T04:15:25;11.78;72.82
74416;SHT31;62850;42.428;25.618;2024-02-26T04:17:50;11.83;71.89
74416;SHT31;62850;42.428;25.618;2024-02-26T04:20:16;11.87;71.78
74416;SHT31;62850;42.428;25.618;2024-02-26T04:22:42;11.90;71.74
74416;SHT31;62850;42.428;25.618;2024-02-26T04:25:08;11.86;71.62
74416;SHT31;62850;42.428;25.618;2024-02-26T04:27:33;11.78;71.62
74416;SHT31;62850;42.428;25.618;2024-02-26T04:29:59;11.78;71.57
74416;SHT31;62850;42.428;25.618;2024-02-26T04:32:24;11.81;71.71
74416;SHT31;62850;42.428;25.618;2024-02-26T04:34:50;11.83;71.67
74416;SHT31;62850;42.428;25.618;2024-02-26T04:37:15;11.84;71.45
74416;SHT31;62850;42.428;25.618;2024-02-26T04:39:41;11.78;71.48
74416;SHT31;62850;42.428;25.618;2024-02-26T04:42:06;11.64;71.54
74416;SHT31;62850;42.428;25.618;2024-02-26T04:44:32;11.64;71.77
74416;SHT31;62850;42.428;25.618;2024-02-26T04:46:58;11.66;71.33
74416;SHT31;62850;42.428;25.618;2024-02-26T04:49:23;11.66;71.56
74416;SHT31;62850;42.428;25.618;2024-02-26T04:51:49;11.59;71.53
74416;SHT31;62850;42.428;25.618;2024-02-26T04:54:14;11.53;71.65
74416;SHT31;62850;42.428;25.618;2024-02-26T04:56:39;11.52;71.54
74416;SHT31;62850;42.428;25.618;2024-02-26T04:59:05;11.43;71.41
74416;SHT31;62850;42.428;25.618;2024-02-26T05:01:30;11.42;71.38
74416;SHT31;62850;42.428;25.618;2024-02-26T05:03:56;11.43;71.32
74416;SHT31;62850;42.428;25.618;2024-02-26T05:06:21;11.47;70.75
74416;SHT31;62850;42.428;25.618;2024-02-26T05:08:47;11.57;70.16
74416;SHT31;62850;42.428;25.618;2024-02-26T05:11:12;11.66;69.81
74416;SHT31;62850;42.428;25.618;2024-02-26T05:13:38;11.59;69.83
74416;SHT31;62850;42.428;25.618;2024-02-26T05:16:03;11.64;69.57
74416;SHT31;62850;42.428;25.618;2024-02-26T05:18:29;11.73;69.39
74416;SHT31;62850;42.428;25.618;2024-02-26T05:20:54;11.71;69.24
74416;SHT31;62850;42.428;25.618;2024-02-26T05:23:20;11.77;68.72
74416;SHT31;62850;42.428;25.618;2024-02-26T05:25:45;11.83;68.51
74416;SHT31;62850;42.428;25.618;2024-02-26T05:28:13;11.81;68.01
74416;SHT31;62850;42.428;25.618;2024-02-26T05:30:41;11.81;67.93
74416;SHT31;62850;42.428;25.618;2024-02-26T05:33:06;11.88;67.77
74416;SHT31;62850;42.428;25.618;2024-02-26T05:35:31;11.95;67.64
74416;SHT31;62850;42.428;25.618;2024-02-26T05:37:57;12.10;67.42
74416;SHT31;62850;42.428;25.618;2024-02-26T05:40:22;12.18;66.92
74416;SHT31;62850;42.428;25.618;2024-02-26T05:42:48;12.31;66.53
74416;SHT31;62850;42.428;25.618;2024-02-26T05:45:14;12.38;66.07
74416;SHT31;62850;42.428;25.618;2024-02-26T05:47:39;12.45;65.78
74416;SHT31;62850;42.428;25.618;2024-02-26T05:50:09;12.53;65.82
74416;SHT31;62850;42.428;25.618;2024-02-26T05:52:36;12.60;65.45
74416;SHT31;62850;42.428;25.618;2024-02-26T05:55:02;12.59;65.38
74416;SHT31;62850;42.428;25.618;2024-02-26T05:57:28;12.55;65.95
74416;SHT31;62850;42.428;25.618;2024-02-26T05:59:53;12.55;65.99
74416;SHT31;62850;42.428;25.618;2024-02-26T06:02:19;12.56;66.09
74416;SHT31;62850;42.428;25.618;2024-02-26T06:04:44;12.52;65.99
74416;SHT31;62850;42.428;25.618;2024-02-26T06:07:09;12.53;65.39
74416;SHT31;62850;42.428;25.618;2024-02-26T06:09:35;12.53;65.56
74416;SHT31;62850;42.428;25.618;2024-02-26T06:12:00;12.50;64.52
74416;SHT31;62850;42.428;25.618;2024-02-26T06:14:26;12.59;64.67
74416;SHT31;62850;42.428;25.618;2024-02-26T06:16:51;12.69;64.24
74416;SHT31;62850;42.428;25.618;2024-02-26T06:19:17;12.66;64.62
74416;SHT31;62850;42.428;25.618;2024-02-26T06:21:42;12.70;64.56
74416;SHT31;62850;42.428;25.618;2024-02-26T06:24:07;12.75;64.22
74416;SHT31;62850;42.428;25.618;2024-02-26T06:26:33;12.79;63.97
74416;SHT31;62850;42.428;25.618;2024-02-26T06:28:58;12.84;63.20
74416;SHT31;62850;42.428;25.618;2024-02-26T06:31:24;12.92;62.63
74416;SHT31;62850;42.428;25.618;2024-02-26T06:33:53;13.00;62.21
74416;SHT31;62850;42.428;25.618;2024-02-26T06:36:18;13.18;61.92
74416;SHT31;62850;42.428;25.618;2024-02-26T06:38:44;13.30;61.65
74416;SHT31;62850;42.428;25.618;2024-02-26T06:41:09;13.31;61.27
74416;SHT31;62850;42.428;25.618;2024-02-26T06:43:35;13.34;60.57
74416;SHT31;62850;42.428;25.618;2024-02-26T06:46:00;13.33;61.29
74416;SHT31;62850;42.428;25.618;2024-02-26T06:48:25;13.35;61.22
74416;SHT31;62850;42.428;25.618;2024-02-26T06:50:51;13.37;61.18
74416;SHT31;62850;42.428;25.618;2024-02-26T06:53:16;13.50;61.40
74416;SHT31;62850;42.428;25.618;2024-02-26T06:55:42;13.59;61.48
74416;SHT31;62850;42.428;25.618;2024-02-26T06:58:08;13.69;61.61
74416;SHT31;62850;42.428;25.618;2024-02-26T07:00:34;13.73;61.15
74416;SHT31;62850;42.428;25.618;2024-02-26T07:03:00;13.78;61.96
74416;SHT31;62850;42.428;25.618;2024-02-26T07:05:26;13.83;62.15
74416;SHT31;62850;42.428;25.618;2024-02-26T07:07:51;13.85;61.88
74416;SHT31;62850;42.428;25.618;2024-02-26T07:10:17;13.90;61.97
74416;SHT31;62850;42.428;25.618;2024-02-26T07:12:43;13.89;62.44
74416;SHT31;62850;42.428;25.618;2024-02-26T07:15:09;13.95;62.04
74416;SHT31;62850;42.428;25.618;2024-02-26T07:17:34;14.02;61.63
74416;SHT31;62850;42.428;25.618;2024-02-26T07:20:00;14.06;62.27
74416;SHT31;62850;42.428;25.618;2024-02-26T07:22:26;14.09;62.45
74416;SHT31;62850;42.428;25.618;2024-02-26T07:24:51;14.10;62.59
74416;SHT31;62850;42.428;25.618;2024-02-26T07:27:18;14.14;62.86
74416;SHT31;62850;42.428;25.618;2024-02-26T07:29:43;14.14;62.95
74416;SHT31;62850;42.428;25.618;2024-02-26T07:32:09;14.14;63.11
74416;SHT31;62850;42.428;25.618;2024-02-26T07:34:35;14.09;63.90
74416;SHT31;62850;42.428;25.618;2024-02-26T07:37:03;14.12;64.10
74416;SHT31;62850;42.428;25.618;2024-02-26T07:39:28;14.13;64.50
74416;SHT31;62850;42.428;25.618;2024-02-26T07:41:53;14.14;63.74
74416;SHT31;62850;42.428;25.618;2024-02-26T07:44:19;14.14;63.44
74416;SHT31;62850;42.428;25.618;2024-02-26T07:46:45;14.19;63.33
74416;SHT31;62850;42.428;25.618;2024-02-26T07:49:10;14.17;63.81
74416;SHT31;62850;42.428;25.618;2024-02-26T07:51:35;14.13;62.63
74416;SHT31;62850;42.428;25.618;2024-02-26T07:54:01;14.09;60.73
74416;SHT31;62850;42.428;25.618;2024-02-26T07:56:27;14.17;61.26
74416;SHT31;62850;42.428;25.618;2024-02-26T07:58:52;14.32;62.29
74416;SHT31;62850;42.428;25.618;2024-02-26T08:01:18;14.40;62.46
74416;SHT31;62850;42.428;25.618;2024-02-26T08:03:43;14.48;62.61
74416;SHT31;62850;42.428;25.618;2024-02-26T08:06:09;14.59;62.79
74416;SHT31;62850;42.428;25.618;2024-02-26T08:08:34;14.65;63.01
74416;SHT31;62850;42.428;25.618;2024-02-26T08:10:59;14.70;63.55
74416;SHT31;62850;42.428;25.618;2024-02-26T08:13:25;14.74;63.57
74416;SHT31;62850;42.428;25.618;2024-02-26T08:15:51;14.78;63.39
74416;SHT31;62850;42.428;25.618;2024-02-26T08:18:17;14.77;63.78
74416;SHT31;62850;42.428;25.618;2024-02-26T08:20:43;14.72;63.70
74416;SHT31;62850;42.428;25.618;2024-02-26T08:23:08;14.72;63.65
74416;SHT31;62850;42.428;25.618;2024-02-26T08:25:34;14.64;63.92
74416;SHT31;62850;42.428;25.618;2024-02-26T08:27:59;14.47;64.39
74416;SHT31;62850;42.428;25.618;2024-02-26T08:30:25;14.38;64.71
74416;SHT31;62850;42.428;25.618;2024-02-26T08:32:50;14.40;64.99
74416;SHT31;62850;42.428;25.618;2024-02-26T08:35:16;14.34;65.18
74416;SHT31;62850;42.428;25.618;2024-02-26T08:37:44;14.23;65.61
74416;SHT31;62850;42.428;25.618;2024-02-26T08:40:11;14.16;65.08
74416;SHT31;62850;42.428;25.618;2024-02-26T08:42:36;14.08;64.60
74416;SHT31;62850;42.428;25.618;2024-02-26T08:45:02;14.14;64.71
74416;SHT31;62850;42.428;25.618;2024-02-26T08:47:28;14.19;64.32
74416;SHT31;62850;42.428;25.618;2024-02-26T08:49:54;14.17;64.31
74416;SHT31;62850;42.428;25.618;2024-02-26T08:52:19;14.19;64.19
74416;SHT31;62850;42.428;25.618;2024-02-26T08:54:46;14.27;63.75
74416;SHT31;62850;42.428;25.618;2024-02-26T08:57:11;14.29;63.69
74416;SHT31;62850;42.428;25.618;2024-02-26T08:59:37;14.26;63.33
74416;SHT31;62850;42.428;25.618;2024-02-26T09:02:02;14.34;63.09
74416;SHT31;62850;42.428;25.618;2024-02-26T09:04:28;14.41;62.82
74416;SHT31;62850;42.428;25.618;2024-02-26T09:06:53;14.37;62.90
74416;SHT31;62850;42.428;25.618;2024-02-26T09:09:19;14.38;62.97
74416;SHT31;62850;42.428;25.618;2024-02-26T09:11:45;14.38;63.31
74416;SHT31;62850;42.428;25.618;2024-02-26T09:14:12;14.54;62.98
74416;SHT31;62850;42.428;25.618;2024-02-26T09:16:37;14.72;62.60
74416;SHT31;62850;42.428;25.618;2024-02-26T09:19:03;14.81;62.23
74416;SHT31;62850;42.428;25.618;2024-02-26T09:21:28;14.99;61.97
74416;SHT31;62850;42.428;25.618;2024-02-26T09:23:54;15.23;61.23
74416;SHT31;62850;42.428;25.618;2024-02-26T09:26:19;15.35;61.05
74416;SHT31;62850;42.428;25.618;2024-02-26T09:28:45;15.53;61.03
74416;SHT31;62850;42.428;25.618;2024-02-26T09:31:10;15.57;60.53
74416;SHT31;62850;42.428;25.618;2024-02-26T09:33:36;15.57;60.75
74416;SHT31;62850;42.428;25.618;2024-02-26T09:36:02;15.53;60.74
74416;SHT31;62850;42.428;25.618;2024-02-26T09:38:27;15.64;60.46
74416;SHT31;62850;42.428;25.618;2024-02-26T09:40:53;15.61;60.73
74416;SHT31;62850;42.428;25.618;2024-02-26T09:43:22;15.53;61.00
74416;SHT31;62850;42.428;25.618;2024-02-26T09:45:50;15.59;60.76
74416;SHT31;62850;42.428;25.618;2024-02-26T09:48:17;15.67;60.34
74416;SHT31;62850;42.428;25.618;2024-02-26T09:50:43;15.76;60.22
74416;SHT31;62850;42.428;25.618;2024-02-26T09:53:11;15.81;60.25
74416;SHT31;62850;42.428;25.618;2024-02-26T09:55:37;15.89;60.39
74416;SHT31;62850;42.428;25.618;2024-02-26T09:58:05;15.91;60.30
74416;SHT31;62850;42.428;25.618;2024-02-26T10:00:31;15.89;60.31
74416;SHT31;62850;42.428;25.618;2024-02-26T10:03:03;15.86;60.60
74416;SHT31;62850;42.428;25.618;2024-02-26T10:05:29;15.86;60.42
74416;SHT31;62850;42.428;25.618;2024-02-26T10:07:57;15.84;60.40
74416;SHT31;62850;42.428;25.618;2024-02-26T10:10:23;15.84;60.47
74416;SHT31;62850;42.428;25.618;2024-02-26T10:12:48;15.83;60.60
74416;SHT31;62850;42.428;25.618;2024-02-26T10:15:14;15.70;60.98
74416;SHT31;62850;42.428;25.618;2024-02-26T10:17:40;15.64;61.34
74416;SHT31;62850;42.428;25.618;2024-02-26T10:20:14;15.74;61.06
74416;SHT31;62850;42.428;25.618;2024-02-26T10:22:48;15.73;61.28
74416;SHT31;62850;42.428;25.618;2024-02-26T10:25:14;15.56;61.80
74416;SHT31;62850;42.428;25.618;2024-02-26T10:27:40;15.44;62.20
74416;SHT31;62850;42.428;25.618;2024-02-26T10:30:18;15.43;62.55
74416;SHT31;62850;42.428;25.618;2024-02-26T10:32:50;15.40;62.74
74416;SHT31;62850;42.428;25.618;2024-02-26T10:35:16;15.38;62.77
74416;SHT31;62850;42.428;25.618;2024-02-26T10:37:43;15.30;63.04
74416;SHT31;62850;42.428;25.618;2024-02-26T10:40:13;15.26;62.75
74416;SHT31;62850;42.428;25.618;2024-02-26T10:42:39;15.23;62.21
74416;SHT31;62850;42.428;25.618;2024-02-26T10:45:09;15.22;62.19
74416;SHT31;62850;42.428;25.618;2024-02-26T10:47:35;15.30;62.22
74416;SHT31;62850;42.428;25.618;2024-02-26T10:50:03;15.39;61.75
74416;SHT31;62850;42.428;25.618;2024-02-26T10:52:31;15.40;60.75
74416;SHT31;62850;42.428;25.618;2024-02-26T10:55:00;15.36;60.87
74416;SHT31;62850;42.428;25.618;2024-02-26T10:57:31;15.42;60.82
74416;SHT31;62850;42.428;25.618;2024-02-26T10:59:59;15.43;60.45
74416;SHT31;62850;42.428;25.618;2024-02-26T11:02:25;15.63;60.40
74416;SHT31;62850;42.428;25.618;2024-02-26T11:04:52;15.84;59.89
74416;SHT31;62850;42.428;25.618;2024-02-26T11:07:19;15.96;58.86
74416;SHT31;62850;42.428;25.618;2024-02-26T11:09:46;15.98;57.75
74416;SHT31;62850;42.428;25.618;2024-02-26T11:12:17;16.19;57.38
74416;SHT31;62850;42.428;25.618;2024-02-26T11:14:46;16.29;56.34
74416;SHT31;62850;42.428;25.618;2024-02-26T11:17:12;16.39;56.67
74416;SHT31;62850;42.428;25.618;2024-02-26T11:19:38;16.45;56.70
74416;SHT31;62850;42.428;25.618;2024-02-26T11:22:04;16.56;56.72
74416;SHT31;62850;42.428;25.618;2024-02-26T11:24:30;16.68;56.54
74416;SHT31;62850;42.428;25.618;2024-02-26T11:26:59;16.75;55.89
74416;SHT31;62850;42.428;25.618;2024-02-26T11:29:37;16.76;55.42
74416;SHT31;62850;42.428;25.618;2024-02-26T11:32:03;16.66;55.76
74416;SHT31;62850;42.428;25.618;2024-02-26T11:34:30;16.66;55.67
74416;SHT31;62850;42.428;25.618;2024-02-26T11:36:56;16.65;55.12
74416;SHT31;62850;42.428;25.618;2024-02-26T11:39:22;16.55;55.62
74416;SHT31;62850;42.428;25.618;2024-02-26T11:41:50;16.55;56.59
74416;SHT31;62850;42.428;25.618;2024-02-26T11:44:28;16.66;56.55
74416;SHT31;62850;42.428;25.618;2024-02-26T11:46:56;16.81;56.21
74416;SHT31;62850;42.428;25.618;2024-02-26T11:51:54;17.04;55.75
74416;SHT31;62850;42.428;25.618;2024-02-26T12:00:11;17.14;54.60
74416;SHT31;62850;42.428;25.618;2024-02-26T12:02:44;17.07;54.68
74416;SHT31;62850;42.428;25.618;2024-02-26T12:05:18;17.03;54.99
74416;SHT31;62850;42.428;25.618;2024-02-26T12:08:03;17.06;55.08
74416;SHT31;62850;42.428;25.618;2024-02-26T12:10:33;17.18;55.26
74416;SHT31;62850;42.428;25.618;2024-02-26T12:13:13;17.18;55.68
74416;SHT31;62850;42.428;25.618;2024-02-26T12:15:55;17.23;56.15
74416;SHT31;62850;42.428;25.618;2024-02-26T12:18:22;17.28;55.88
74416;SHT31;62850;42.428;25.618;2024-02-26T12:21:00;17.30;54.87
74416;SHT31;62850;42.428;25.618;2024-02-26T12:23:26;17.32;54.88
74416;SHT31;62850;42.428;25.618;2024-02-26T12:25:52;17.34;53.68
74416;SHT31;62850;42.428;25.618;2024-02-26T12:28:17;17.24;52.77
74416;SHT31;62850;42.428;25.618;2024-02-26T12:30:43;17.08;53.11
74416;SHT31;62850;42.428;25.618;2024-02-26T12:33:08;17.24;51.68
74416;SHT31;62850;42.428;25.618;2024-02-26T12:35:35;17.26;51.61
74416;SHT31;62850;42.428;25.618;2024-02-26T12:38:00;17.24;51.19
74416;SHT31;62850;42.428;25.618;2024-02-26T12:40:26;17.31;50.77
74416;SHT31;62850;42.428;25.618;2024-02-26T12:42:53;17.32;49.94
74416;SHT31;62850;42.428;25.618;2024-02-26T12:45:20;17.27;49.09
74416;SHT31;62850;42.428;25.618;2024-02-26T12:47:46;17.20;48.64
74416;SHT31;62850;42.428;25.618;2024-02-26T12:50:12;17.23;49.00
74416;SHT31;62850;42.428;25.618;2024-02-26T12:52:44;17.34;48.02
74416;SHT31;62850;42.428;25.618;2024-02-26T12:55:15;17.44;48.47
74416;SHT31;62850;42.428;25.618;2024-02-26T12:57:42;17.51;48.50
74416;SHT31;62850;42.428;25.618;2024-02-26T13:00:12;17.59;48.69
74416;SHT31;62850;42.428;25.618;2024-02-26T13:02:38;17.61;48.85
74416;SHT31;62850;42.428;25.618;2024-02-26T13:05:06;17.52;49.06
74416;SHT31;62850;42.428;25.618;2024-02-26T13:07:32;17.39;49.86
74416;SHT31;62850;42.428;25.618;2024-02-26T13:09:58;17.49;49.64
74416;SHT31;62850;42.428;25.618;2024-02-26T13:12:24;17.45;49.78
74416;SHT31;62850;42.428;25.618;2024-02-26T13:15:03;17.39;49.98
74416;SHT31;62850;42.428;25.618;2024-02-26T13:17:32;17.44;50.21
74416;SHT31;62850;42.428;25.618;2024-02-26T13:19:58;17.49;50.00
74416;SHT31;62850;42.428;25.618;2024-02-26T13:22:23;17.39;50.31
74416;SHT31;62850;42.428;25.618;2024-02-26T13:24:56;17.41;50.39
74416;SHT31;62850;42.428;25.618;2024-02-26T13:27:23;17.42;50.44
74416;SHT31;62850;42.428;25.618;2024-02-26T13:29:48;17.45;50.20
74416;SHT31;62850;42.428;25.618;2024-02-26T13:32:14;17.31;50.70
74416;SHT31;62850;42.428;25.618;2024-02-26T13:34:39;17.27;51.08
74416;SHT31;62850;42.428;25.618;2024-02-26T13:37:05;17.20;51.25
74416;SHT31;62850;42.428;25.618;2024-02-26T13:39:31;17.24;51.44
74416;SHT31;62850;42.428;25.618;2024-02-26T13:41:56;17.21;51.28
74416;SHT31;62850;42.428;25.618;2024-02-26T13:44:23;17.30;51.02
74416;SHT31;62850;42.428;25.618;2024-02-26T13:46:49;17.17;50.28
74416;SHT31;62850;42.428;25.618;2024-02-26T13:49:15;17.16;49.84
74416;SHT31;62850;42.428;25.618;2024-02-26T13:51:41;17.18;49.44
74416;SHT31;62850;42.428;25.618;2024-02-26T13:54:06;17.14;49.40
74416;SHT31;62850;42.428;25.618;2024-02-26T13:56:32;17.23;49.74
74416;SHT31;62850;42.428;25.618;2024-02-26T13:58:58;17.34;49.45
74416;SHT31;62850;42.428;25.618;2024-02-26T14:01:24;17.37;49.17
74416;SHT31;62850;42.428;25.618;2024-02-26T14:03:49;17.38;49.11
74416;SHT31;62850;42.428;25.618;2024-02-26T14:06:16;17.38;49.49
74416;SHT31;62850;42.428;25.618;2024-02-26T14:08:41;17.31;49.15
74416;SHT31;62850;42.428;25.618;2024-02-26T14:11:07;17.38;49.08
74416;SHT31;62850;42.428;25.618;2024-02-26T14:13:32;17.37;49.13
74416;SHT31;62850;42.428;25.618;2024-02-26T14:15:58;17.48;49.37
74416;SHT31;62850;42.428;25.618;2024-02-26T14:18:23;17.42;49.05
74416;SHT31;62850;42.428;25.618;2024-02-26T14:20:49;17.45;49.35
74416;SHT31;62850;42.428;25.618;2024-02-26T14:23:15;17.42;49.32
74416;SHT31;62850;42.428;25.618;2024-02-26T14:25:40;17.47;49.42
74416;SHT31;62850;42.428;25.618;2024-02-26T14:28:06;17.31;49.77
74416;SHT31;62850;42.428;25.618;2024-02-26T14:30:31;17.27;49.66
74416;SHT31;62850;42.428;25.618;2024-02-26T14:32:57;17.26;50.65
74416;SHT31;62850;42.428;25.618;2024-02-26T14:35:23;17.30;50.18
74416;SHT31;62850;42.428;25.618;2024-02-26T14:37:49;17.17;50.52
74416;SHT31;62850;42.428;25.618;2024-02-26T14:40:15;17.16;51.26
74416;SHT31;62850;42.428;25.618;2024-02-26T14:42:41;16.99;53.39
74416;SHT31;62850;42.428;25.618;2024-02-26T14:45:07;16.91;54.55
74416;SHT31;62850;42.428;25.618;2024-02-26T14:47:35;16.79;56.32
74416;SHT31;62850;42.428;25.618;2024-02-26T14:50:01;16.68;56.86
74416;SHT31;62850;42.428;25.618;2024-02-26T14:52:26;16.49;57.05
74416;SHT31;62850;42.428;25.618;2024-02-26T14:54:52;16.56;56.60
74416;SHT31;62850;42.428;25.618;2024-02-26T14:57:18;16.41;56.45
74416;SHT31;62850;42.428;25.618;2024-02-26T14:59:44;16.38;56.09
74416;SHT31;62850;42.428;25.618;2024-02-26T15:02:09;16.28;55.90
74416;SHT31;62850;42.428;25.618;2024-02-26T15:04:36;16.25;55.67
74416;SHT31;62850;42.428;25.618;2024-02-26T15:07:02;16.17;55.88
74416;SHT31;62850;42.428;25.618;2024-02-26T15:09:27;16.17;55.96
74416;SHT31;62850;42.428;25.618;2024-02-26T15:11:53;16.08;56.27
74416;SHT31;62850;42.428;25.618;2024-02-26T15:14:18;15.98;56.87
74416;SHT31;62850;42.428;25.618;2024-02-26T15:16:44;15.96;57.85
74416;SHT31;62850;42.428;25.618;2024-02-26T15:19:09;16.02;57.75